Pontycymer, United Kingdom
Current Conditions -  °F | °C
As of 4:50 PM on Saturday 25 Oct 2014 (Local Time) from EGDX Reporting Station
Broken Clouds Broken Clouds  
Wind Chill: 57°   Ceiling: 4600
Heat Index: 57°   Visibility: 6mi
Dew Point: 50°   Wind: 20mph
Humidity: 77%   Direction: 240°WSW
Pressure: 30.06"   Gusts: NA
Location:  51.61°N, 3.58°W
Report Text: EGDX 251550Z AUTO 24017KT 9999 FEW023/// BKN046/// 14/10 Q1018 RERA
Loading
Personal Weather Stations






























Interactive Weather Map
Tropical Storm Tracking
New forecast layout! Learn more

10-Day Weather Forecast

Advertisements
Track Severe Weather on mobile